Latest Weather Observations for West Wyalong

IDN60801

Issued at 3:35 pm EST Thursday 24 April 2014 (issued every 30 minutes, with the page automatically refreshed every 10 minutes)

About weather observations | Map of weather stations | Latest weather observations for NSW | Other Formats
Station Details ID: 050017 Name: WEST WYALONG AIRPORT AWS Lat: -33.94 Lon: 147.20 Height: 257.0 m
Data from the previous 72 hours. | See also: Recent months for locations in New South Wales
Date/Time
EST
Temp
°C
App
Temp
°C
Dew
Point
Rel
Hum
%
Delta-T
°C
Wind Press
QNH
hPa
Press
MSL
hPa
Rain
since 9 am
mm
Dir
 
Spd
km/h
Gust
km/h
Spd
kts
Gust
kts
24/03:30pm 23.2 19.7 5.6 32 9.0 SW 13 22 7 12 1015.1 - 0.0
24/03:00pm 23.3 19.2 6.1 33 8.9 SW 17 22 9 12 1015.0 1014.5 0.0
24/02:30pm 23.4 19.3 7.9 37 8.3 SSW 19 26 10 14 1015.1 - 0.0
24/02:00pm 23.1 19.9 8.4 39 7.9 SSW 15 24 8 13 1015.2 - 0.0
24/01:30pm 22.8 19.1 7.8 38 8.0 SW 17 26 9 14 1015.3 - 0.0
24/01:00pm 22.7 18.7 8.4 40 7.7 SW 19 28 10 15 1015.5 - 0.0
24/12:30pm 22.5 18.8 9.6 44 7.1 S 19 24 10 13 1015.6 - 0.0
24/12:00pm 21.8 18.7 10.3 48 6.3 S 17 22 9 12 1016.0 1015.6 0.0
24/11:30am 21.3 17.9 10.5 50 6.0 S 19 28 10 15 1016.2 - 0.0
24/11:00am 21.5 18.4 11.5 53 5.6 SW 19 24 10 13 1016.4 - 0.0
24/10:30am 21.2 18.2 11.8 55 5.3 SW 19 28 10 15 1016.4 - 0.0
24/10:00am 20.7 17.2 10.8 53 5.5 SSW 20 28 11 15 1016.5 - 0.0
24/09:30am 20.7 19.0 11.1 54 5.3 SW 11 15 6 8 1016.3 - 0.0
24/09:00am 19.7 18.2 9.3 51 5.6 W 7 9 4 5 1016.2 1015.8 0.0
24/08:30am 18.0 16.2 8.0 52 5.2 W 7 11 4 6 1015.9 - 0.0
24/08:00am 15.5 14.0 8.3 62 3.7 WNW 6 11 3 6 1015.7 - 0.0
24/07:30am 11.7 11.2 8.0 78 1.8 CALM 0 0 0 0 1015.2 - 0.0
24/07:00am 10.1 9.3 6.4 78 1.7 CALM 0 0 0 0 1014.5 - 0.0
24/06:30am 10.9 8.7 6.3 73 2.2 SSW 7 11 4 6 1014.1 - 0.0
24/06:00am 12.7 9.5 7.0 68 2.8 NNW 13 15 7 8 1013.7 1013.2 0.0
24/05:30am 13.6 10.7 6.7 63 3.4 N 11 13 6 7 1013.5 - 0.0
24/05:00am 14.3 11.5 6.9 61 3.7 NNW 11 13 6 7 1013.4 - 0.0
24/04:30am 13.9 10.7 7.0 63 3.4 NNW 13 15 7 8 1013.3 - 0.0
24/04:00am 13.7 10.9 6.8 63 3.4 NNW 11 13 6 7 1013.4 - 0.0
24/03:30am 14.4 11.9 6.7 60 3.8 NNW 9 11 5 6 1013.5 - 0.0
24/03:00am 15.2 12.3 6.7 57 4.2 NNW 11 13 6 7 1013.6 1013.1 0.0
24/02:30am 15.8 13.0 6.8 55 4.5 NNW 11 15 6 8 1013.8 - 0.0
24/02:00am 16.2 13.5 7.2 55 4.5 NNW 11 13 6 7 1014.2 - 0.0
24/01:30am 15.4 13.1 8.9 65 3.4 NW 11 15 6 8 1014.4 - 0.0
24/01:00am 10.7 9.1 7.9 83 1.4 WNW 6 9 3 5 1014.5 - 0.0
24/12:30am 11.1 10.5 7.6 79 1.7 CALM 0 0 0 0 1014.7 - 0.0
24/12:00am 11.3 10.8 7.8 79 1.7 CALM 0 0 0 0 1014.8 1014.3 0.0
 
Date/Time
EST
Temp
°C
App
Temp
°C
Dew
Point
Rel
Hum
%
Delta-T
°C
Wind Press
QNH
hPa
Press
MSL
hPa
Rain
since 9 am
mm
Dir
 
Spd
km/h
Gust
km/h
Spd
kts
Gust
kts
23/11:30pm 12.1 10.9 8.0 76 2.0 WSW 4 6 2 3 1015.0 - 0.0
23/11:00pm 12.2 10.7 8.3 77 2.0 W 6 7 3 4 1015.2 - 0.0
23/10:30pm 12.4 10.7 7.7 73 2.3 N 6 9 3 5 1015.3 - 0.0
23/10:00pm 13.3 12.9 8.2 71 2.6 CALM 0 0 0 0 1015.2 - 0.0
23/09:30pm 13.6 13.0 7.6 67 3.0 CALM 0 0 0 0 1015.4 - 0.0
23/09:00pm 15.5 14.9 7.5 59 4.0 CALM 0 0 0 0 1015.3 1014.8 0.0
23/08:30pm 17.2 15.9 7.5 53 4.9 W 4 7 2 4 1015.4 - 0.0
23/08:00pm 17.2 15.4 7.8 54 4.8 SW 7 11 4 6 1015.3 - 0.0
23/07:30pm 18.4 16.6 7.8 50 5.5 NW 7 9 4 5 1015.1 - 0.0
23/07:00pm 19.5 17.2 7.3 45 6.3 NNW 9 11 5 6 1014.9 - 0.0
23/06:30pm 19.2 16.9 7.3 46 6.1 N 9 13 5 7 1014.8 - 0.0
23/06:00pm 21.9 19.4 6.6 37 7.9 NW 9 9 5 5 1014.8 1014.3 0.0
23/05:30pm 22.9 20.3 6.2 34 8.6 NW 9 11 5 6 1014.7 - 0.0
23/05:00pm 24.6 21.3 6.4 31 9.5 NW 13 19 7 10 1014.5 - 0.0
23/04:30pm 25.8 21.9 6.9 30 10.0 NW 17 20 9 11 1014.6 - 0.0
23/04:00pm 25.9 21.8 6.0 28 10.4 NW 17 24 9 13 1014.6 - 0.0
23/03:30pm 25.5 21.6 7.1 31 9.8 WNW 17 22 9 12 1014.7 - 0.0
23/03:00pm 26.8 22.8 6.8 28 10.7 WNW 17 22 9 12 1014.7 1014.2 0.0
23/02:30pm 27.5 24.2 7.9 29 10.7 WNW 15 26 8 14 1014.7 - 0.0
23/02:00pm 26.1 22.3 7.7 31 9.9 NNW 17 26 9 14 1014.9 - 0.0
23/01:30pm 26.1 23.2 8.1 32 9.8 NNW 13 20 7 11 1015.2 - 0.0
23/01:00pm 25.4 22.3 8.8 35 9.1 NNW 15 22 8 12 1015.7 - 0.0
23/12:30pm 24.5 21.1 7.6 34 9.0 N 15 22 8 12 1016.3 - 0.0
23/12:00pm 24.0 20.7 8.0 36 8.6 N 15 20 8 11 1016.8 1016.4 0.0
23/11:30am 23.1 20.8 9.1 41 7.6 N 11 15 6 8 1017.4 - 0.0
23/11:00am 22.1 19.4 8.9 43 7.1 N 13 19 7 10 1017.8 - 0.0
23/10:30am 21.2 18.5 8.8 45 6.6 N 13 19 7 10 1018.1 - 0.0
23/10:00am 19.5 15.6 8.5 49 5.8 N 19 24 10 13 1018.1 - 0.0
23/09:30am 17.2 14.3 8.1 55 4.7 N 13 17 7 9 1018.3 - 0.0
23/09:00am 16.6 15.1 9.1 61 3.9 NNE 7 11 4 6 1018.5 1018.0 0.0
23/08:30am 14.5 12.3 8.0 65 3.3 N 9 13 5 7 1018.4 - 0.0
23/08:00am 12.5 12.2 8.6 77 2.0 CALM 0 0 0 0 1018.3 - 0.0
23/07:30am 10.6 10.3 8.7 88 0.9 CALM 0 0 0 0 1017.9 - 0.0
23/07:00am 9.2 7.4 7.0 86 1.0 NNE 6 6 3 3 1017.8 - 0.0
23/06:30am 9.5 7.6 6.6 82 1.4 NNE 6 7 3 4 1017.5 - 0.0
23/06:00am 9.4 7.5 6.7 83 1.3 N 6 7 3 4 1017.5 1017.0 0.0
23/05:30am 10.1 7.7 7.2 82 1.4 N 9 9 5 5 1017.3 - 0.0
23/05:00am 9.2 8.6 7.2 87 1.0 CALM 0 0 0 0 1017.1 - 0.0
23/04:30am 8.8 8.1 6.8 87 0.9 CALM 0 0 0 0 1017.0 - 0.0
23/04:00am 8.8 8.1 6.9 88 0.9 CALM 0 0 0 0 1016.9 - 0.0
23/03:30am 8.7 7.9 6.7 87 0.9 CALM 0 0 0 0 1016.6 - 0.0
23/03:00am 9.3 8.6 6.9 85 1.1 CALM 0 0 0 0 1016.7 1016.3 0.0
23/02:30am 9.1 7.2 6.5 84 1.2 NNE 6 7 3 4 1016.7 - 0.0
23/02:00am 9.2 8.5 6.8 85 1.1 CALM 0 0 0 0 1017.0 - 0.0
23/01:30am 9.0 8.2 6.3 83 1.3 CALM 0 0 0 0 1017.4 - 0.0
23/01:00am 9.5 8.7 6.4 81 1.5 CALM 0 0 0 0 1017.6 - 0.0
23/12:30am 10.5 9.7 6.6 77 1.9 CALM 0 0 0 0 1017.7 - 0.0
23/12:00am 12.2 10.0 6.3 67 2.8 N 7 9 4 5 1017.7 1017.2 0.0
 
Date/Time
EST
Temp
°C
App
Temp
°C
Dew
Point
Rel
Hum
%
Delta-T
°C
Wind Press
QNH
hPa
Press
MSL
hPa
Rain
since 9 am
mm
Dir
 
Spd
km/h
Gust
km/h
Spd
kts
Gust
kts
22/11:30pm 13.3 11.3 6.9 65 3.1 N 7 9 4 5 1017.8 - 0.0
22/11:00pm 13.2 10.4 6.8 65 3.1 N 11 11 6 6 1018.0 - 0.0
22/10:30pm 13.6 10.4 6.7 63 3.4 N 13 15 7 8 1018.2 - 0.0
22/10:00pm 14.0 11.1 6.6 61 3.6 N 11 13 6 7 1018.3 - 0.0
22/09:30pm 14.4 11.2 6.7 60 3.8 N 13 15 7 8 1018.2 - 0.0
22/09:00pm 14.5 11.7 7.1 61 3.7 NNE 11 13 6 7 1018.2 1017.7 0.0
22/08:30pm 14.6 12.6 7.2 61 3.7 N 7 9 4 5 1018.1 - 0.0
22/08:00pm 15.2 12.9 7.5 60 3.9 N 9 11 5 6 1018.0 - 0.0
22/07:30pm 13.9 12.0 7.7 66 3.1 NNE 7 9 4 5 1018.0 - 0.0
22/07:00pm 14.6 14.0 7.4 62 3.6 CALM 0 0 0 0 1017.8 - 0.0
22/06:30pm 16.1 14.4 7.6 57 4.3 NNE 6 7 3 4 1017.6 - 0.0
22/06:00pm 18.2 16.2 7.3 49 5.6 NNE 7 9 4 5 1017.3 1016.8 0.0
22/05:30pm 19.9 18.0 7.6 45 6.4 NNE 7 9 4 5 1017.0 - 0.0
22/05:00pm 21.6 19.8 7.8 41 7.3 N 7 11 4 6 1016.8 - 0.0
22/04:30pm 22.7 20.6 6.5 35 8.4 NW 7 13 4 7 1016.8 - 0.0
22/04:00pm 22.7 20.1 6.0 34 8.6 NNW 9 13 5 7 1016.6 - 0.0
22/03:30pm 23.3 20.7 6.1 33 8.9 NNW 9 17 5 9 1016.7 - 0.0
22/03:00pm 22.7 19.8 6.5 35 8.4 NW 11 17 6 9 1016.8 1016.4 0.0
22/02:30pm 22.6 19.8 6.8 36 8.2 NW 11 17 6 9 1017.0 - 0.0
22/02:00pm 22.5 19.7 7.1 37 8.0 NNW 11 19 6 10 1017.1 - 0.0
22/01:30pm 22.3 19.4 8.1 40 7.5 NNW 13 17 7 9 1017.3 - 0.0
22/01:00pm 22.1 18.7 7.5 39 7.7 NNW 15 22 8 12 1017.7 - 0.0
22/12:30pm 20.2 15.9 6.9 42 6.8 NNW 19 24 10 13 1018.3 - 0.0
22/12:00pm 20.9 17.0 7.2 41 7.1 NNW 17 26 9 14 1018.6 1018.1 0.0
22/11:30am 19.4 16.0 7.5 46 6.1 N 15 22 8 12 1019.1 - 0.0
22/11:00am 19.8 16.1 7.9 46 6.2 NNW 17 24 9 13 1019.4 - 0.0
22/10:30am 19.2 15.8 7.6 47 6.0 NNW 15 22 8 12 1019.5 - 0.0
22/10:00am 18.6 15.2 7.7 49 5.6 N 15 19 8 10 1019.6 - 0.0
22/09:30am 16.0 13.5 8.0 59 4.1 NNE 11 13 6 7 1020.1 - 0.0
22/09:00am 14.5 12.4 6.8 60 3.8 NE 7 11 4 6 1020.2 1019.8 0.0
22/08:30am 12.8 10.9 6.8 67 2.9 NNE 6 9 3 5 1020.0 - 0.0
22/08:00am 10.4 9.8 7.3 81 1.5 CALM 0 0 0 0 1019.9 - 0.0
22/07:30am 7.4 6.6 6.7 95 0.3 CALM 0 0 0 0 1019.7 - 0.0
22/07:00am 4.9 2.4 4.0 94 0.4 WSW 6 9 3 5 1019.6 - 0.0
22/06:30am 5.5 4.3 4.5 93 0.4 CALM 0 0 0 0 1019.2 - 0.0
22/06:00am 5.8 4.7 5.1 95 0.3 CALM 0 0 0 0 1019.1 1018.6 0.0
22/05:30am 5.8 4.6 4.8 93 0.4 CALM 0 0 0 0 1018.9 - 0.0
22/05:00am 5.9 4.7 4.7 92 0.5 CALM 0 0 0 0 1018.7 - 0.0
22/04:30am 5.9 4.7 4.4 90 0.7 CALM 0 0 0 0 1018.7 - 0.0
22/04:00am 6.4 5.2 4.7 89 0.7 CALM 0 0 0 0 1018.8 - 0.0
22/03:30am 6.8 5.7 5.0 88 0.8 CALM 0 0 0 0 1018.8 - 0.0
22/03:00am 6.6 5.4 4.8 88 0.8 CALM 0 0 0 0 1018.7 1018.2 0.0
22/02:30am 6.9 5.8 5.1 88 0.8 CALM 0 0 0 0 1019.1 - 0.0
22/02:00am 7.2 5.7 5.0 86 1.0 N 2 6 1 3 1019.2 - 0.0
22/01:30am 7.8 6.8 5.6 86 1.0 CALM 0 0 0 0 1019.3 - 0.0
22/01:00am 7.9 7.0 5.9 87 0.9 CALM 0 0 0 0 1019.5 - 0.0
22/12:30am 7.5 6.4 5.3 86 1.0 CALM 0 0 0 0 1019.7 - 0.0
22/12:00am 7.3 6.2 5.1 86 1.0 CALM 0 0 0 0 1020.0 1019.6 0.0
 
Date/Time
EST
Temp
°C
App
Temp
°C
Dew
Point
Rel
Hum
%
Delta-T
°C
Wind Press
QNH
hPa
Press
MSL
hPa
Rain
since 9 am
mm
Dir
 
Spd
km/h
Gust
km/h
Spd
kts
Gust
kts
21/11:30pm 7.4 6.3 5.2 86 1.0 CALM 0 0 0 0 1020.2 - 0.0
21/11:00pm 7.3 6.1 4.8 84 1.1 CALM 0 0 0 0 1020.4 - 0.0
21/10:30pm 7.3 6.1 4.6 83 1.2 CALM 0 0 0 0 1020.5 - 0.0
21/10:00pm 7.7 6.5 4.8 82 1.3 CALM 0 0 0 0 1020.5 - 0.0
21/09:30pm 8.4 7.3 5.0 79 1.5 CALM 0 0 0 0 1020.6 - 0.0
21/09:00pm 9.0 8.0 5.6 79 1.6 CALM 0 0 0 0 1020.6 1020.2 0.0
21/08:30pm 9.2 8.1 5.0 75 1.9 CALM 0 0 0 0 1020.3 - 0.0
21/08:00pm 10.3 9.5 6.3 76 1.9 CALM 0 0 0 0 1020.3 - 0.0
21/07:30pm 10.8 9.8 5.8 71 2.3 CALM 0 0 0 0 1020.3 - 0.0
21/07:00pm 12.0 11.0 5.6 65 3.0 CALM 0 0 0 0 1020.2 - 0.0
21/06:30pm 12.9 12.0 6.0 63 3.3 CALM 0 0 0 0 1020.1 - 0.0
21/06:00pm 13.8 12.9 6.2 60 3.7 CALM 0 0 0 0 1019.9 1019.5 0.0
21/05:30pm 16.5 15.4 4.9 46 5.6 CALM 0 0 0 0 1019.6 - 0.0
21/05:00pm 18.3 17.0 4.1 39 6.8 CALM 0 0 0 0 1019.6 - 0.0
21/04:30pm 19.2 16.8 4.2 37 7.3 NNE 6 11 3 6 1019.5 - 0.0
21/04:00pm 19.7 17.4 4.6 37 7.4 NNW 6 7 3 4 1019.6 - 0.0

Other Formats:

Comma delimited format used in spreadsheet applications
http://www.bom.gov.au/fwo/IDN60801/IDN60801.95709.axf

JavaScript Object Notation format (JSON) in row-major order
http://www.bom.gov.au/fwo/IDN60801/IDN60801.95709.json